createdAt,value
2022-10-19T00:00:29.195Z,16.81
2022-10-19T00:02:55.601Z,16.85
2022-10-19T00:05:22.069Z,16.79
2022-10-19T00:07:48.481Z,16.78
2022-10-19T00:10:14.901Z,16.80
2022-10-19T00:12:41.310Z,16.80
2022-10-19T00:15:08.292Z,16.82
2022-10-19T00:17:35.534Z,16.75
2022-10-19T00:20:02.179Z,16.74
2022-10-19T00:22:28.586Z,16.80
2022-10-19T00:24:56.935Z,16.83
2022-10-19T00:27:23.353Z,16.82
2022-10-19T00:29:49.725Z,16.74
2022-10-19T00:32:16.168Z,16.73
2022-10-19T00:34:42.608Z,16.72
2022-10-19T00:37:08.983Z,16.71
2022-10-19T00:39:35.424Z,16.72
2022-10-19T00:42:02.025Z,16.65
2022-10-19T00:44:28.424Z,16.69
2022-10-19T00:46:59.012Z,16.74
2022-10-19T00:49:39.334Z,16.71
2022-10-19T00:52:14.742Z,16.75
2022-10-19T00:54:43.004Z,16.78
2022-10-19T00:57:10.529Z,16.76
2022-10-19T00:59:39.719Z,16.77
2022-10-19T01:02:07.079Z,16.73
2022-10-19T01:04:37.934Z,16.73
2022-10-19T01:07:06.859Z,16.74
2022-10-19T01:09:33.310Z,16.74
2022-10-19T01:12:17.332Z,16.67
2022-10-19T01:15:09.953Z,16.73
2022-10-19T01:17:51.396Z,16.71
2022-10-19T01:20:33.708Z,16.66
2022-10-19T01:23:14.889Z,16.75
2022-10-19T01:25:44.461Z,16.71
2022-10-19T01:28:44.484Z,16.63
2022-10-19T01:31:24.661Z,16.56
2022-10-19T01:34:13.520Z,16.58
2022-10-19T01:36:42.423Z,16.57
2022-10-19T01:39:17.601Z,16.58
2022-10-19T01:42:08.429Z,16.60
2022-10-19T01:44:37.723Z,16.52
2022-10-19T01:47:10.012Z,16.49
2022-10-19T01:49:48.119Z,16.57
2022-10-19T01:52:18.848Z,16.64
2022-10-19T01:54:49.602Z,15.97
2022-10-19T01:57:22.781Z,16.08
2022-10-19T01:59:49.972Z,13.64
2022-10-19T02:02:18.505Z,15.57
2022-10-19T02:04:46.904Z,16.23
2022-10-19T02:07:13.616Z,16.33
2022-10-19T02:09:40.063Z,16.38
2022-10-19T02:12:10.933Z,16.43
2022-10-19T02:14:43.247Z,16.38
2022-10-19T02:17:13.942Z,16.36
2022-10-19T02:19:40.987Z,16.41
2022-10-19T02:22:08.531Z,16.44
2022-10-19T02:24:34.942Z,16.49
2022-10-19T02:27:05.444Z,15.05
2022-10-19T02:29:33.722Z,15.75
2022-10-19T02:32:01.150Z,16.25
2022-10-19T02:34:27.768Z,16.32
2022-10-19T02:36:55.267Z,16.37
2022-10-19T02:39:21.857Z,16.31
2022-10-19T02:42:11.875Z,16.34
2022-10-19T02:44:56.037Z,16.38
2022-10-19T02:47:28.337Z,16.28
2022-10-19T02:49:54.761Z,13.86
2022-10-19T02:52:21.178Z,15.71
2022-10-19T02:54:48.060Z,16.11
2022-10-19T02:57:17.850Z,16.25
2022-10-19T02:59:44.759Z,16.26
2022-10-19T03:02:11.250Z,16.22
2022-10-19T03:04:37.728Z,16.17
2022-10-19T03:07:04.243Z,16.14
2022-10-19T03:09:30.660Z,16.24
2022-10-19T03:11:57.085Z,16.28
2022-10-19T03:14:23.534Z,16.33
2022-10-19T03:16:50.063Z,16.19
2022-10-19T03:19:16.503Z,16.20
2022-10-19T03:21:42.938Z,16.26
2022-10-19T03:24:09.330Z,16.24
2022-10-19T03:26:35.789Z,16.26
2022-10-19T03:29:02.286Z,16.24
2022-10-19T03:31:28.718Z,16.22
2022-10-19T03:33:55.482Z,16.22
2022-10-19T03:36:24.363Z,16.19
2022-10-19T03:38:56.376Z,16.17
2022-10-19T03:41:24.743Z,16.18
2022-10-19T03:43:51.392Z,16.13
2022-10-19T03:46:17.926Z,16.11
2022-10-19T03:48:44.825Z,16.10
2022-10-19T03:51:19.893Z,16.06
2022-10-19T03:53:47.100Z,16.14
2022-10-19T03:56:16.325Z,16.11
2022-10-19T03:58:44.700Z,13.76
2022-10-19T04:01:17.647Z,14.95
2022-10-19T04:03:44.217Z,13.48
2022-10-19T04:06:16.952Z,14.23
2022-10-19T04:08:48.754Z,15.50
2022-10-19T04:11:17.272Z,15.82
2022-10-19T04:13:43.763Z,15.92
2022-10-19T04:16:13.814Z,15.85
2022-10-19T04:18:40.238Z,15.88
2022-10-19T04:21:07.222Z,15.92
2022-10-19T04:23:35.988Z,15.97
2022-10-19T04:26:05.049Z,15.89
2022-10-19T04:28:31.761Z,15.92
2022-10-19T04:31:01.957Z,15.97
2022-10-19T04:33:28.389Z,15.99
2022-10-19T04:35:59.264Z,15.96
2022-10-19T04:38:26.111Z,15.97
2022-10-19T04:40:52.845Z,15.96
2022-10-19T04:43:19.270Z,15.95
2022-10-19T04:45:45.665Z,15.95
2022-10-19T04:48:14.996Z,15.94
2022-10-19T04:50:41.760Z,15.95
2022-10-19T04:53:08.242Z,15.88
2022-10-19T04:55:34.673Z,15.87
2022-10-19T04:58:01.163Z,15.84
2022-10-19T05:00:27.639Z,15.86
2022-10-19T05:02:54.042Z,15.89
2022-10-19T05:05:20.564Z,15.83
2022-10-19T05:07:48.959Z,15.83
2022-10-19T05:10:15.478Z,15.87
2022-10-19T05:12:41.987Z,15.89
2022-10-19T05:15:09.001Z,15.87
2022-10-19T05:17:35.745Z,15.87
2022-10-19T05:20:02.365Z,15.94
2022-10-19T05:22:28.764Z,15.68
2022-10-19T05:24:58.065Z,15.88
2022-10-19T05:27:24.927Z,15.93
2022-10-19T05:29:51.377Z,14.85
2022-10-19T05:32:17.877Z,15.49
2022-10-19T05:34:44.273Z,15.76
2022-10-19T05:37:10.770Z,15.81
2022-10-19T05:39:37.210Z,15.85
2022-10-19T05:42:03.853Z,15.80
2022-10-19T05:44:30.380Z,15.80
2022-10-19T05:46:56.963Z,15.83
2022-10-19T05:49:23.452Z,15.83
2022-10-19T05:51:50.580Z,15.76
2022-10-19T05:54:17.356Z,15.76
2022-10-19T05:56:44.669Z,15.78
2022-10-19T05:59:16.691Z,15.73
2022-10-19T06:01:43.315Z,15.74
2022-10-19T06:04:10.790Z,15.72
2022-10-19T06:06:37.371Z,15.69
2022-10-19T06:09:03.923Z,15.71
2022-10-19T06:11:34.967Z,15.72
2022-10-19T06:14:04.044Z,15.72
2022-10-19T06:16:31.850Z,15.72
2022-10-19T06:18:59.448Z,15.74
2022-10-19T06:21:29.414Z,15.76
2022-10-19T06:23:58.642Z,15.83
2022-10-19T06:26:26.109Z,15.82
2022-10-19T06:28:55.936Z,15.79
2022-10-19T06:31:22.302Z,15.84
2022-10-19T06:33:49.626Z,15.92
2022-10-19T06:36:20.439Z,15.80
2022-10-19T06:38:47.051Z,15.76
2022-10-19T06:41:13.611Z,15.73
2022-10-19T06:43:40.408Z,15.82
2022-10-19T06:46:12.362Z,15.45
2022-10-19T06:48:38.899Z,15.41
2022-10-19T06:51:07.625Z,15.60
2022-10-19T06:53:35.409Z,15.75
2022-10-19T06:56:04.462Z,15.79
2022-10-19T06:58:31.135Z,15.72
2022-10-19T07:01:02.053Z,14.83
2022-10-19T07:03:29.907Z,14.09
2022-10-19T07:05:58.648Z,14.79
2022-10-19T07:08:26.539Z,15.40
2022-10-19T07:10:54.749Z,15.59
2022-10-19T07:13:21.684Z,15.62
2022-10-19T07:15:48.492Z,15.66
2022-10-19T07:18:15.191Z,15.63
2022-10-19T07:20:42.004Z,15.65
2022-10-19T07:23:08.454Z,15.73
2022-10-19T07:25:36.503Z,15.72
2022-10-19T07:28:03.060Z,15.65
2022-10-19T07:30:29.471Z,15.40
2022-10-19T07:32:55.879Z,15.61
2022-10-19T07:35:22.280Z,15.68
2022-10-19T07:37:48.696Z,15.65
2022-10-19T07:40:15.289Z,15.68
2022-10-19T07:42:41.663Z,15.69
2022-10-19T07:45:08.310Z,15.71
2022-10-19T07:47:35.043Z,15.71
2022-10-19T07:50:01.564Z,15.68
2022-10-19T07:52:29.129Z,15.78
2022-10-19T07:54:56.317Z,15.09
2022-10-19T07:57:22.773Z,14.66
2022-10-19T07:59:49.157Z,15.13
2022-10-19T08:02:17.028Z,15.48
2022-10-19T08:05:02.793Z,15.60
2022-10-19T08:07:33.690Z,15.63
2022-10-19T08:10:00.042Z,15.60
2022-10-19T08:12:26.497Z,15.61
2022-10-19T08:14:53.796Z,15.60
2022-10-19T08:17:20.279Z,15.62
2022-10-19T08:19:47.023Z,15.61
2022-10-19T08:22:13.725Z,15.61
2022-10-19T08:24:40.128Z,15.61
2022-10-19T08:27:06.543Z,15.64
2022-10-19T08:29:32.943Z,15.81
2022-10-19T08:31:59.510Z,15.68
2022-10-19T08:34:26.631Z,15.72
2022-10-19T08:36:53.091Z,15.76
2022-10-19T08:39:19.568Z,15.68
2022-10-19T08:42:06.887Z,15.86
2022-10-19T08:45:06.397Z,15.89
2022-10-19T08:47:41.882Z,16.12
2022-10-19T08:50:32.906Z,16.34
2022-10-19T08:53:11.171Z,16.55
2022-10-19T08:55:55.026Z,16.31
2022-10-19T08:58:41.769Z,18.33
2022-10-19T09:01:16.959Z,17.53
2022-10-19T09:03:56.132Z,16.22
2022-10-19T09:06:44.913Z,17.06
2022-10-19T09:09:13.701Z,17.03
2022-10-19T09:11:46.164Z,16.62
2022-10-19T09:14:25.742Z,16.71
2022-10-19T09:16:54.635Z,15.44
2022-10-19T09:19:29.260Z,15.66
2022-10-19T09:21:59.490Z,15.88
2022-10-19T09:24:33.605Z,15.27
2022-10-19T09:27:01.578Z,15.08
2022-10-19T09:29:39.825Z,15.59
2022-10-19T09:32:14.415Z,15.39
2022-10-19T09:34:48.469Z,14.97
2022-10-19T09:37:23.197Z,15.48
2022-10-19T09:39:54.958Z,15.73
2022-10-19T09:42:37.030Z,15.84
2022-10-19T09:45:19.721Z,15.87
2022-10-19T09:47:48.626Z,15.85
2022-10-19T09:50:25.686Z,15.88
2022-10-19T09:53:02.550Z,15.93
2022-10-19T09:55:36.901Z,15.89
2022-10-19T09:58:27.019Z,15.88
2022-10-19T10:00:57.749Z,16.03
2022-10-19T10:03:36.338Z,16.04
2022-10-19T10:06:10.399Z,16.10
2022-10-19T10:08:39.711Z,16.13
2022-10-19T10:11:09.033Z,16.05
2022-10-19T10:13:41.657Z,16.12
2022-10-19T10:16:11.476Z,16.39
2022-10-19T10:18:43.544Z,16.46
2022-10-19T10:21:27.212Z,16.51
2022-10-19T10:24:06.064Z,16.47
2022-10-19T10:26:40.092Z,16.57
2022-10-19T10:29:27.772Z,16.68
2022-10-19T10:32:05.035Z,16.38
2022-10-19T10:34:51.034Z,16.22
2022-10-19T10:37:30.576Z,16.05
2022-10-19T10:40:01.761Z,16.11
2022-10-19T10:42:36.881Z,15.73
2022-10-19T10:45:04.664Z,15.96
2022-10-19T10:47:31.427Z,16.03
2022-10-19T10:50:02.639Z,16.08
2022-10-19T10:52:31.363Z,16.04
2022-10-19T10:55:09.146Z,16.04
2022-10-19T10:57:40.769Z,15.77
2022-10-19T11:00:13.976Z,15.98
2022-10-19T11:03:08.048Z,15.69
2022-10-19T11:05:40.744Z,15.52
2022-10-19T11:08:19.379Z,15.30
2022-10-19T11:10:55.389Z,15.26
2022-10-19T11:13:29.842Z,15.41
2022-10-19T11:16:05.006Z,15.26
2022-10-19T11:18:38.028Z,15.55
2022-10-19T11:21:13.048Z,15.35
2022-10-19T11:23:52.144Z,15.42
2022-10-19T11:26:43.483Z,15.65
2022-10-19T11:29:31.852Z,15.47
2022-10-19T11:31:58.578Z,15.69
2022-10-19T11:34:27.892Z,15.75
2022-10-19T11:37:12.565Z,15.55
2022-10-19T11:39:57.250Z,15.22
2022-10-19T11:42:42.083Z,15.36
2022-10-19T11:45:45.980Z,15.76
2022-10-19T11:48:43.815Z,15.94
2022-10-19T11:51:40.745Z,15.99
2022-10-19T11:54:19.221Z,15.97
2022-10-19T11:57:11.833Z,16.01
2022-10-19T11:59:50.225Z,16.00
2022-10-19T12:02:39.958Z,15.99
2022-10-19T12:05:26.355Z,16.13
2022-10-19T12:11:01.604Z,16.08
2022-10-19T12:13:59.859Z,16.23
2022-10-19T12:16:49.948Z,16.17
2022-10-19T12:19:24.140Z,16.47
2022-10-19T12:21:55.039Z,16.27
2022-10-19T12:24:25.205Z,16.54
2022-10-19T12:26:54.811Z,16.19
2022-10-19T12:29:28.298Z,16.16
2022-10-19T12:31:57.676Z,17.00
2022-10-19T12:34:42.256Z,17.27
2022-10-19T12:37:15.968Z,17.17
2022-10-19T12:39:57.730Z,17.06
2022-10-19T12:42:36.116Z,16.42
2022-10-19T12:45:18.352Z,16.84
2022-10-19T12:48:12.625Z,17.01
2022-10-19T12:50:48.113Z,16.79
2022-10-19T12:56:05.864Z,17.08
2022-10-19T12:58:43.486Z,17.31
2022-10-19T13:01:24.677Z,16.94
2022-10-19T13:04:06.669Z,17.26
2022-10-19T13:06:40.817Z,16.57
2022-10-19T13:09:19.531Z,16.46
2022-10-19T13:12:21.400Z,16.29
2022-10-19T13:14:51.524Z,16.25
2022-10-19T13:17:36.915Z,16.34
2022-10-19T13:20:15.277Z,16.33
2022-10-19T13:22:45.013Z,16.22
2022-10-19T13:25:23.774Z,16.11
2022-10-19T13:27:52.264Z,16.37
2022-10-19T13:30:38.127Z,16.40
2022-10-19T13:33:28.487Z,16.42
2022-10-19T13:36:02.293Z,16.49
2022-10-19T13:38:28.842Z,16.45
2022-10-19T13:40:55.257Z,16.96
2022-10-19T13:43:32.553Z,16.79
2022-10-19T13:46:10.513Z,16.55
2022-10-19T13:49:01.475Z,17.05
2022-10-19T13:51:37.206Z,17.14
2022-10-19T13:54:27.978Z,17.26
2022-10-19T13:57:18.950Z,17.32
2022-10-19T14:00:07.211Z,17.36
2022-10-19T14:03:20.692Z,17.33
2022-10-19T14:06:02.260Z,17.18
2022-10-19T14:08:35.087Z,17.15
2022-10-19T14:11:20.399Z,17.16
2022-10-19T14:14:07.332Z,17.09
2022-10-19T14:16:33.729Z,16.92
2022-10-19T14:19:00.315Z,16.77
2022-10-19T14:21:32.512Z,16.72
2022-10-19T14:23:59.837Z,16.67
2022-10-19T14:26:31.696Z,16.82
2022-10-19T14:28:59.841Z,17.14
2022-10-19T14:31:35.073Z,17.09
2022-10-19T14:34:04.200Z,17.10
2022-10-19T14:36:37.952Z,16.99
2022-10-19T14:39:05.724Z,16.97
2022-10-19T14:41:32.670Z,16.84
2022-10-19T14:44:02.772Z,16.83
2022-10-19T14:46:31.200Z,16.79
2022-10-19T14:49:03.202Z,16.78
2022-10-19T14:52:01.063Z,16.75
2022-10-19T14:54:36.369Z,16.61
2022-10-19T14:57:15.822Z,16.68
2022-10-19T14:59:57.837Z,16.61
2022-10-19T15:02:29.355Z,16.57
2022-10-19T15:04:59.195Z,16.64
2022-10-19T15:07:37.023Z,16.51
2022-10-19T15:10:08.103Z,16.53
2022-10-19T15:12:38.428Z,16.44
2022-10-19T15:15:16.524Z,16.37
2022-10-19T15:18:02.419Z,16.40
2022-10-19T15:20:44.031Z,16.44
2022-10-19T15:23:36.391Z,16.51
2022-10-19T15:26:17.375Z,16.52
2022-10-19T15:28:45.237Z,16.59
2022-10-19T15:31:29.151Z,16.56
2022-10-19T15:34:00.669Z,16.63
2022-10-19T15:36:29.564Z,16.61
2022-10-19T15:39:18.282Z,16.58
2022-10-19T15:41:51.354Z,16.61
2022-10-19T15:44:41.937Z,16.63
2022-10-19T15:47:14.576Z,16.61
2022-10-19T15:49:40.952Z,16.61
2022-10-19T15:52:15.967Z,16.46
2022-10-19T15:54:42.934Z,16.55
2022-10-19T15:57:25.094Z,16.61
2022-10-19T15:59:51.640Z,16.61
2022-10-19T16:02:18.111Z,16.62
2022-10-19T16:04:44.516Z,16.47
2022-10-19T16:07:16.692Z,16.26
2022-10-19T16:09:43.143Z,16.39
2022-10-19T16:12:11.208Z,16.53
2022-10-19T16:14:37.632Z,16.59
2022-10-19T16:17:04.649Z,16.55
2022-10-19T16:19:31.095Z,16.59
2022-10-19T16:21:57.580Z,16.59
2022-10-19T16:24:24.027Z,16.58
2022-10-19T16:26:50.510Z,16.57
2022-10-19T16:29:16.965Z,16.60
2022-10-19T16:31:43.359Z,16.56
2022-10-19T16:34:09.777Z,16.60
2022-10-19T16:36:36.247Z,16.62
2022-10-19T16:39:04.350Z,16.61
2022-10-19T16:41:31.393Z,16.60
2022-10-19T16:43:57.955Z,16.65
2022-10-19T16:46:24.994Z,16.61
2022-10-19T16:48:52.061Z,16.60
2022-10-19T16:51:26.133Z,16.60
2022-10-19T16:53:56.998Z,16.59
2022-10-19T16:56:24.648Z,16.60
2022-10-19T16:58:53.888Z,16.61
2022-10-19T17:01:20.547Z,16.57
2022-10-19T17:03:48.058Z,16.59
2022-10-19T17:06:15.946Z,16.59
2022-10-19T17:09:23.316Z,16.49
2022-10-19T17:11:31.978Z,16.56
2022-10-19T17:13:59.611Z,16.57
2022-10-19T17:16:28.075Z,16.58
2022-10-19T17:18:56.429Z,16.57
2022-10-19T17:21:26.440Z,16.58
2022-10-19T17:23:58.943Z,16.58
2022-10-19T17:26:27.520Z,16.59
2022-10-19T17:28:55.109Z,16.60
2022-10-19T17:31:22.127Z,16.61
2022-10-19T17:33:51.428Z,16.59
2022-10-19T17:36:27.539Z,16.60
2022-10-19T17:38:55.191Z,16.57
2022-10-19T17:41:22.212Z,16.61
2022-10-19T17:43:51.772Z,16.59
2022-10-19T17:46:20.997Z,16.58
2022-10-19T17:48:48.343Z,16.59
2022-10-19T17:51:17.847Z,16.59
2022-10-19T17:53:45.648Z,16.54
2022-10-19T17:56:15.385Z,16.57
2022-10-19T17:58:42.731Z,16.55
2022-10-19T18:01:11.623Z,16.57
2022-10-19T18:03:39.259Z,16.58
2022-10-19T18:06:12.100Z,16.61
2022-10-19T18:08:41.676Z,16.56
2022-10-19T18:11:13.821Z,16.58
2022-10-19T18:13:41.314Z,16.59
2022-10-19T18:16:14.528Z,16.60
2022-10-19T18:18:43.105Z,16.51
2022-10-19T18:21:11.922Z,16.58
2022-10-19T18:23:39.276Z,16.53
2022-10-19T18:26:09.031Z,16.53
2022-10-19T18:28:35.855Z,16.59
2022-10-19T18:31:09.809Z,16.60
2022-10-19T18:33:36.780Z,16.57
2022-10-19T18:36:05.032Z,16.58
2022-10-19T18:38:32.886Z,16.54
2022-10-19T18:41:07.942Z,16.54
2022-10-19T18:43:34.524Z,16.52
2022-10-19T18:46:01.282Z,16.52
2022-10-19T18:48:29.840Z,16.54
2022-10-19T18:50:58.020Z,16.52
2022-10-19T18:53:25.745Z,16.52
2022-10-19T18:56:05.249Z,16.54
2022-10-19T18:58:32.387Z,16.50
2022-10-19T19:01:06.479Z,16.53
2022-10-19T19:03:33.513Z,16.52
2022-10-19T19:06:09.484Z,16.53
2022-10-19T19:08:36.164Z,16.55
2022-10-19T19:11:20.780Z,16.55
2022-10-19T19:13:53.739Z,16.59
2022-10-19T19:16:20.986Z,16.54
2022-10-19T19:18:47.854Z,16.48
2022-10-19T19:21:25.683Z,16.47
2022-10-19T19:23:54.176Z,16.52
2022-10-19T19:26:23.071Z,16.57
2022-10-19T19:28:51.647Z,16.50
2022-10-19T19:31:19.652Z,16.45
2022-10-19T19:33:47.387Z,16.53
2022-10-19T19:36:16.004Z,16.54
2022-10-19T19:38:42.752Z,16.45
2022-10-19T19:41:12.078Z,16.46
2022-10-19T19:43:39.589Z,16.51
2022-10-19T19:46:12.579Z,16.52
2022-10-19T19:48:40.754Z,16.46
2022-10-19T19:51:09.284Z,16.41
2022-10-19T19:53:36.887Z,16.46
2022-10-19T19:56:03.782Z,16.49
2022-10-19T19:58:30.246Z,16.49
2022-10-19T20:00:56.719Z,16.49
2022-10-19T20:03:23.323Z,16.49
2022-10-19T20:05:49.751Z,16.47
2022-10-19T20:08:16.358Z,16.48
2022-10-19T20:10:43.456Z,16.49
2022-10-19T20:13:10.153Z,16.42
2022-10-19T20:15:39.603Z,16.46
2022-10-19T20:18:06.176Z,16.47
2022-10-19T20:20:32.704Z,16.27
2022-10-19T20:22:59.142Z,16.41
2022-10-19T20:25:25.680Z,16.43
2022-10-19T20:27:52.205Z,16.42
2022-10-19T20:30:18.760Z,16.41
2022-10-19T20:32:45.256Z,16.43
2022-10-19T20:35:11.800Z,16.44
2022-10-19T20:37:38.250Z,16.44
2022-10-19T20:40:08.572Z,16.41
2022-10-19T20:42:35.664Z,16.36
2022-10-19T20:45:02.406Z,16.41
2022-10-19T20:47:29.433Z,16.37
2022-10-19T20:49:56.086Z,15.60
2022-10-19T20:52:22.553Z,16.17
2022-10-19T20:54:49.260Z,16.31
2022-10-19T20:57:15.908Z,16.33
2022-10-19T20:59:43.893Z,16.35
2022-10-19T21:02:11.595Z,16.32
2022-10-19T21:04:38.066Z,16.34
2022-10-19T21:07:05.006Z,16.38
2022-10-19T21:09:32.003Z,16.34
2022-10-19T21:11:59.087Z,16.32
2022-10-19T21:14:28.790Z,16.31
2022-10-19T21:16:58.011Z,16.28
2022-10-19T21:19:25.879Z,16.29
2022-10-19T21:22:03.854Z,16.29
2022-10-19T21:24:35.513Z,16.29
2022-10-19T21:27:07.536Z,16.29
2022-10-19T21:29:34.246Z,16.26
2022-10-19T21:32:00.745Z,16.28
2022-10-19T21:34:28.866Z,16.26
2022-10-19T21:36:56.281Z,16.24
2022-10-19T21:39:22.811Z,16.29
2022-10-19T21:41:49.703Z,16.27
2022-10-19T21:44:17.789Z,16.27
2022-10-19T21:46:46.861Z,16.24
2022-10-19T21:49:13.661Z,16.23
2022-10-19T21:51:48.530Z,16.18
2022-10-19T21:54:17.774Z,16.25
2022-10-19T21:56:45.344Z,16.18
2022-10-19T21:59:12.360Z,16.13
2022-10-19T22:01:41.084Z,16.17
2022-10-19T22:04:12.627Z,16.17
2022-10-19T22:06:39.760Z,16.14
2022-10-19T22:09:08.615Z,16.10
2022-10-19T22:11:35.204Z,16.18
2022-10-19T22:14:04.079Z,16.17
2022-10-19T22:16:32.356Z,15.94
2022-10-19T22:18:59.177Z,16.07
2022-10-19T22:21:28.953Z,16.07
2022-10-19T22:23:57.773Z,16.10
2022-10-19T22:26:27.361Z,16.05
2022-10-19T22:28:55.665Z,16.02
2022-10-19T22:31:22.224Z,16.05
2022-10-19T22:33:48.815Z,16.06
2022-10-19T22:36:16.074Z,15.70
2022-10-19T22:38:42.491Z,15.03
2022-10-19T22:41:09.039Z,15.74
2022-10-19T22:43:35.459Z,15.72
2022-10-19T22:46:01.948Z,15.94
2022-10-19T22:48:28.314Z,14.77
2022-10-19T22:50:55.684Z,15.38
2022-10-19T22:53:23.300Z,15.80
2022-10-19T22:55:50.376Z,14.84
2022-10-19T22:58:17.253Z,15.54
2022-10-19T23:00:43.667Z,15.84
2022-10-19T23:03:13.772Z,15.78
2022-10-19T23:05:40.204Z,15.82
2022-10-19T23:08:06.591Z,15.89
2022-10-19T23:10:33.299Z,15.89
2022-10-19T23:12:59.727Z,15.89
2022-10-19T23:15:26.242Z,15.92
2022-10-19T23:17:52.691Z,15.80
2022-10-19T23:20:19.116Z,15.79
2022-10-19T23:22:45.530Z,15.86
2022-10-19T23:25:11.925Z,15.86
2022-10-19T23:27:38.731Z,15.82
2022-10-19T23:30:05.652Z,15.86
2022-10-19T23:32:32.091Z,15.90
2022-10-19T23:34:58.508Z,15.72
2022-10-19T23:37:24.882Z,15.68
2022-10-19T23:39:51.276Z,15.68
2022-10-19T23:42:17.827Z,15.73
2022-10-19T23:44:44.225Z,15.68
2022-10-19T23:47:10.691Z,15.73
2022-10-19T23:49:37.093Z,15.37
2022-10-19T23:52:03.693Z,15.66
2022-10-19T23:54:30.180Z,15.68
2022-10-19T23:56:56.670Z,15.72
2022-10-19T23:59:23.155Z,15.76
